sensor_id;sensor_type;location;lat;lon;timestamp;temperature;humidity
44723;DHT22;30451;48.638;10.624;2023-04-10T00:01:47;22.60;45.40
44723;DHT22;30451;48.638;10.624;2023-04-10T00:04:13;22.60;45.50
44723;DHT22;30451;48.638;10.624;2023-04-10T00:06:39;22.50;45.40
44723;DHT22;30451;48.638;10.624;2023-04-10T00:09:06;22.50;45.40
44723;DHT22;30451;48.638;10.624;2023-04-10T00:11:32;22.50;45.40
44723;DHT22;30451;48.638;10.624;2023-04-10T00:13:58;22.50;45.40
44723;DHT22;30451;48.638;10.624;2023-04-10T00:16:23;22.50;45.40
44723;DHT22;30451;48.638;10.624;2023-04-10T00:18:49;22.50;45.40
44723;DHT22;30451;48.638;10.624;2023-04-10T00:21:15;22.50;45.40
44723;DHT22;30451;48.638;10.624;2023-04-10T00:23:41;22.50;45.50
44723;DHT22;30451;48.638;10.624;2023-04-10T00:26:07;22.50;45.50
44723;DHT22;30451;48.638;10.624;2023-04-10T00:28:32;22.50;45.50
44723;DHT22;30451;48.638;10.624;2023-04-10T00:31:04;22.50;45.50
44723;DHT22;30451;48.638;10.624;2023-04-10T00:33:30;22.40;45.50
44723;DHT22;30451;48.638;10.624;2023-04-10T00:35:56;22.50;45.50
44723;DHT22;30451;48.638;10.624;2023-04-10T00:38:21;22.40;45.40
44723;DHT22;30451;48.638;10.624;2023-04-10T00:40:47;22.40;45.50
44723;DHT22;30451;48.638;10.624;2023-04-10T00:43:13;22.40;45.50
44723;DHT22;30451;48.638;10.624;2023-04-10T00:45:38;22.40;45.50
44723;DHT22;30451;48.638;10.624;2023-04-10T00:48:04;22.40;45.50
44723;DHT22;30451;48.638;10.624;2023-04-10T00:50:30;22.40;45.50
44723;DHT22;30451;48.638;10.624;2023-04-10T00:52:57;22.40;45.50
44723;DHT22;30451;48.638;10.624;2023-04-10T00:55:23;22.40;45.50
44723;DHT22;30451;48.638;10.624;2023-04-10T00:57:49;22.40;45.50
44723;DHT22;30451;48.638;10.624;2023-04-10T01:00:15;22.30;45.40
44723;DHT22;30451;48.638;10.624;2023-04-10T01:02:41;22.30;45.50
44723;DHT22;30451;48.638;10.624;2023-04-10T01:05:10;22.30;45.50
44723;DHT22;30451;48.638;10.624;2023-04-10T01:08:06;22.30;45.50
44723;DHT22;30451;48.638;10.624;2023-04-10T01:10:43;22.30;45.50
44723;DHT22;30451;48.638;10.624;2023-04-10T01:13:15;22.30;45.50
44723;DHT22;30451;48.638;10.624;2023-04-10T01:16:10;22.30;45.50
44723;DHT22;30451;48.638;10.624;2023-04-10T01:18:43;22.30;45.50
44723;DHT22;30451;48.638;10.624;2023-04-10T01:21:11;22.30;45.50
44723;DHT22;30451;48.638;10.624;2023-04-10T01:24:06;22.30;45.50
44723;DHT22;30451;48.638;10.624;2023-04-10T01:29:16;22.30;45.50
44723;DHT22;30451;48.638;10.624;2023-04-10T01:31:49;22.30;45.50
44723;DHT22;30451;48.638;10.624;2023-04-10T01:34:23;22.20;45.50
44723;DHT22;30451;48.638;10.624;2023-04-10T01:37:03;22.20;45.50
44723;DHT22;30451;48.638;10.624;2023-04-10T01:39:29;22.20;45.50
44723;DHT22;30451;48.638;10.624;2023-04-10T01:41:57;22.20;45.50
44723;DHT22;30451;48.638;10.624;2023-04-10T01:44:26;22.20;45.50
44723;DHT22;30451;48.638;10.624;2023-04-10T01:46:54;22.20;45.50
44723;DHT22;30451;48.638;10.624;2023-04-10T01:49:20;22.20;45.50
44723;DHT22;30451;48.638;10.624;2023-04-10T01:51:48;22.20;45.50
44723;DHT22;30451;48.638;10.624;2023-04-10T01:54:15;22.20;45.50
44723;DHT22;30451;48.638;10.624;2023-04-10T01:56:41;22.20;45.60
44723;DHT22;30451;48.638;10.624;2023-04-10T01:59:07;22.20;45.50
44723;DHT22;30451;48.638;10.624;2023-04-10T02:01:32;22.10;45.50
44723;DHT22;30451;48.638;10.624;2023-04-10T02:04:00;22.10;45.50
44723;DHT22;30451;48.638;10.624;2023-04-10T02:06:41;22.10;45.50
44723;DHT22;30451;48.638;10.624;2023-04-10T02:09:22;22.10;45.50
44723;DHT22;30451;48.638;10.624;2023-04-10T02:12:05;22.10;45.50
44723;DHT22;30451;48.638;10.624;2023-04-10T02:14:33;22.10;45.50
44723;DHT22;30451;48.638;10.624;2023-04-10T02:17:02;22.10;45.50
44723;DHT22;30451;48.638;10.624;2023-04-10T02:19:29;22.10;45.50
44723;DHT22;30451;48.638;10.624;2023-04-10T02:21:55;22.10;45.60
44723;DHT22;30451;48.638;10.624;2023-04-10T02:24:22;22.10;45.60
44723;DHT22;30451;48.638;10.624;2023-04-10T02:26:49;22.10;45.60
44723;DHT22;30451;48.638;10.624;2023-04-10T02:29:16;22.10;45.60
44723;DHT22;30451;48.638;10.624;2023-04-10T02:31:42;22.10;45.50
44723;DHT22;30451;48.638;10.624;2023-04-10T02:34:08;22.10;45.60
44723;DHT22;30451;48.638;10.624;2023-04-10T02:36:36;22.10;45.60
44723;DHT22;30451;48.638;10.624;2023-04-10T02:39:02;22.00;45.50
44723;DHT22;30451;48.638;10.624;2023-04-10T02:41:28;22.00;45.50
44723;DHT22;30451;48.638;10.624;2023-04-10T02:43:53;22.10;45.60
44723;DHT22;30451;48.638;10.624;2023-04-10T02:46:19;22.10;45.60
44723;DHT22;30451;48.638;10.624;2023-04-10T02:48:45;22.00;45.50
44723;DHT22;30451;48.638;10.624;2023-04-10T02:51:10;22.00;45.50
44723;DHT22;30451;48.638;10.624;2023-04-10T02:53:36;22.00;45.60
44723;DHT22;30451;48.638;10.624;2023-04-10T02:56:02;22.00;45.60
44723;DHT22;30451;48.638;10.624;2023-04-10T02:58:28;22.00;45.60
44723;DHT22;30451;48.638;10.624;2023-04-10T03:00:56;22.00;45.60
44723;DHT22;30451;48.638;10.624;2023-04-10T03:03:22;22.00;45.60
44723;DHT22;30451;48.638;10.624;2023-04-10T03:05:48;22.00;45.60
44723;DHT22;30451;48.638;10.624;2023-04-10T03:08:14;22.00;45.60
44723;DHT22;30451;48.638;10.624;2023-04-10T03:10:43;22.00;45.60
44723;DHT22;30451;48.638;10.624;2023-04-10T03:13:09;22.00;45.60
44723;DHT22;30451;48.638;10.624;2023-04-10T03:15:36;21.90;45.60
44723;DHT22;30451;48.638;10.624;2023-04-10T03:18:03;22.00;45.60
44723;DHT22;30451;48.638;10.624;2023-04-10T03:20:30;21.90;45.60
44723;DHT22;30451;48.638;10.624;2023-04-10T03:22:56;21.90;45.60
44723;DHT22;30451;48.638;10.624;2023-04-10T03:25:22;21.90;45.60
44723;DHT22;30451;48.638;10.624;2023-04-10T03:27:48;21.90;45.60
44723;DHT22;30451;48.638;10.624;2023-04-10T03:30:13;21.90;45.60
44723;DHT22;30451;48.638;10.624;2023-04-10T03:32:39;21.90;45.60
44723;DHT22;30451;48.638;10.624;2023-04-10T03:35:08;21.90;45.60
44723;DHT22;30451;48.638;10.624;2023-04-10T03:37:34;21.90;45.60
44723;DHT22;30451;48.638;10.624;2023-04-10T03:39:59;21.90;45.60
44723;DHT22;30451;48.638;10.624;2023-04-10T03:42:25;21.90;45.60
44723;DHT22;30451;48.638;10.624;2023-04-10T03:44:51;21.90;45.70
44723;DHT22;30451;48.638;10.624;2023-04-10T03:47:17;21.90;45.60
44723;DHT22;30451;48.638;10.624;2023-04-10T03:49:43;21.90;45.70
44723;DHT22;30451;48.638;10.624;2023-04-10T03:52:09;21.90;45.70
44723;DHT22;30451;48.638;10.624;2023-04-10T03:54:35;21.90;45.70
44723;DHT22;30451;48.638;10.624;2023-04-10T03:57:00;21.90;45.70
44723;DHT22;30451;48.638;10.624;2023-04-10T03:59:26;21.90;45.70
44723;DHT22;30451;48.638;10.624;2023-04-10T04:01:52;21.80;45.60
44723;DHT22;30451;48.638;10.624;2023-04-10T04:04:17;21.80;45.70
44723;DHT22;30451;48.638;10.624;2023-04-10T04:06:43;21.80;45.70
44723;DHT22;30451;48.638;10.624;2023-04-10T04:09:09;21.80;45.70
44723;DHT22;30451;48.638;10.624;2023-04-10T04:11:34;21.80;45.70
44723;DHT22;30451;48.638;10.624;2023-04-10T04:14:00;21.80;45.70
44723;DHT22;30451;48.638;10.624;2023-04-10T04:16:26;21.80;45.70
44723;DHT22;30451;48.638;10.624;2023-04-10T04:18:51;21.80;45.70
44723;DHT22;30451;48.638;10.624;2023-04-10T04:21:17;21.80;45.70
44723;DHT22;30451;48.638;10.624;2023-04-10T04:23:42;21.80;45.70
44723;DHT22;30451;48.638;10.624;2023-04-10T04:26:08;21.80;45.70
44723;DHT22;30451;48.638;10.624;2023-04-10T04:28:34;21.80;45.70
44723;DHT22;30451;48.638;10.624;2023-04-10T04:31:00;21.70;45.70
44723;DHT22;30451;48.638;10.624;2023-04-10T04:33:26;21.80;45.70
44723;DHT22;30451;48.638;10.624;2023-04-10T04:35:51;21.70;45.70
44723;DHT22;30451;48.638;10.624;2023-04-10T04:38:17;21.70;45.70
44723;DHT22;30451;48.638;10.624;2023-04-10T04:40:44;21.70;45.70
44723;DHT22;30451;48.638;10.624;2023-04-10T04:43:10;21.70;45.70
44723;DHT22;30451;48.638;10.624;2023-04-10T04:45:36;21.70;45.70
44723;DHT22;30451;48.638;10.624;2023-04-10T04:48:01;21.70;45.70
44723;DHT22;30451;48.638;10.624;2023-04-10T04:50:27;21.70;45.70
44723;DHT22;30451;48.638;10.624;2023-04-10T04:52:53;21.70;45.70
44723;DHT22;30451;48.638;10.624;2023-04-10T04:55:18;21.70;45.70
44723;DHT22;30451;48.638;10.624;2023-04-10T04:57:44;21.70;45.70
44723;DHT22;30451;48.638;10.624;2023-04-10T05:00:10;21.70;45.70
44723;DHT22;30451;48.638;10.624;2023-04-10T05:02:35;21.70;45.70
44723;DHT22;30451;48.638;10.624;2023-04-10T05:05:01;21.70;45.70
44723;DHT22;30451;48.638;10.624;2023-04-10T05:07:27;21.70;45.70
44723;DHT22;30451;48.638;10.624;2023-04-10T05:09:52;21.70;45.70
44723;DHT22;30451;48.638;10.624;2023-04-10T05:12:18;21.70;45.70
44723;DHT22;30451;48.638;10.624;2023-04-10T05:14:44;21.70;45.70
44723;DHT22;30451;48.638;10.624;2023-04-10T05:17:10;21.70;45.70
44723;DHT22;30451;48.638;10.624;2023-04-10T05:19:36;21.70;45.80
44723;DHT22;30451;48.638;10.624;2023-04-10T05:22:01;21.60;45.70
44723;DHT22;30451;48.638;10.624;2023-04-10T05:24:27;21.60;45.70
44723;DHT22;30451;48.638;10.624;2023-04-10T05:26:52;21.70;45.70
44723;DHT22;30451;48.638;10.624;2023-04-10T05:29:18;21.60;45.70
44723;DHT22;30451;48.638;10.624;2023-04-10T05:31:44;21.60;45.70
44723;DHT22;30451;48.638;10.624;2023-04-10T05:34:10;21.60;45.70
44723;DHT22;30451;48.638;10.624;2023-04-10T05:36:36;21.60;45.70
44723;DHT22;30451;48.638;10.624;2023-04-10T05:39:01;21.60;45.70
44723;DHT22;30451;48.638;10.624;2023-04-10T05:41:27;21.60;45.70
44723;DHT22;30451;48.638;10.624;2023-04-10T05:43:53;21.60;45.70
44723;DHT22;30451;48.638;10.624;2023-04-10T05:46:18;21.60;45.70
44723;DHT22;30451;48.638;10.624;2023-04-10T05:48:44;21.60;45.70
44723;DHT22;30451;48.638;10.624;2023-04-10T05:51:09;21.60;45.80
44723;DHT22;30451;48.638;10.624;2023-04-10T05:53:35;21.60;45.70
44723;DHT22;30451;48.638;10.624;2023-04-10T05:56:01;21.60;45.70
44723;DHT22;30451;48.638;10.624;2023-04-10T05:58:27;21.60;45.70
44723;DHT22;30451;48.638;10.624;2023-04-10T06:00:53;21.60;45.80
44723;DHT22;30451;48.638;10.624;2023-04-10T06:03:19;21.60;45.70
44723;DHT22;30451;48.638;10.624;2023-04-10T06:05:45;21.60;45.80
44723;DHT22;30451;48.638;10.624;2023-04-10T06:08:11;21.60;45.80
44723;DHT22;30451;48.638;10.624;2023-04-10T06:10:37;21.60;45.80
44723;DHT22;30451;48.638;10.624;2023-04-10T06:13:02;21.60;45.80
44723;DHT22;30451;48.638;10.624;2023-04-10T06:15:28;21.60;45.80
44723;DHT22;30451;48.638;10.624;2023-04-10T06:17:54;21.60;45.80
44723;DHT22;30451;48.638;10.624;2023-04-10T06:20:20;21.60;45.80
44723;DHT22;30451;48.638;10.624;2023-04-10T06:22:45;21.60;45.80
44723;DHT22;30451;48.638;10.624;2023-04-10T06:25:11;21.60;45.80
44723;DHT22;30451;48.638;10.624;2023-04-10T06:27:37;21.50;45.70
44723;DHT22;30451;48.638;10.624;2023-04-10T06:30:03;21.60;45.80
44723;DHT22;30451;48.638;10.624;2023-04-10T06:32:29;21.60;45.80
44723;DHT22;30451;48.638;10.624;2023-04-10T06:34:55;21.50;45.80
44723;DHT22;30451;48.638;10.624;2023-04-10T06:37:27;21.50;45.80
44723;DHT22;30451;48.638;10.624;2023-04-10T06:40:08;21.50;45.80
44723;DHT22;30451;48.638;10.624;2023-04-10T06:42:36;21.60;45.90
44723;DHT22;30451;48.638;10.624;2023-04-10T06:45:03;21.50;45.90
44723;DHT22;30451;48.638;10.624;2023-04-10T06:47:29;21.50;45.90
44723;DHT22;30451;48.638;10.624;2023-04-10T06:49:56;21.60;46.00
44723;DHT22;30451;48.638;10.624;2023-04-10T06:52:22;21.50;45.90
44723;DHT22;30451;48.638;10.624;2023-04-10T06:54:47;21.50;45.90
44723;DHT22;30451;48.638;10.624;2023-04-10T06:57:13;21.50;45.90
44723;DHT22;30451;48.638;10.624;2023-04-10T06:59:39;21.50;46.50
44723;DHT22;30451;48.638;10.624;2023-04-10T07:02:04;21.50;45.90
44723;DHT22;30451;48.638;10.624;2023-04-10T07:04:31;21.50;45.90
44723;DHT22;30451;48.638;10.624;2023-04-10T07:06:56;21.50;46.00
44723;DHT22;30451;48.638;10.624;2023-04-10T07:09:24;21.50;46.00
44723;DHT22;30451;48.638;10.624;2023-04-10T07:11:50;21.50;46.00
44723;DHT22;30451;48.638;10.624;2023-04-10T07:14:17;21.50;46.00
44723;DHT22;30451;48.638;10.624;2023-04-10T07:16:43;21.50;46.00
44723;DHT22;30451;48.638;10.624;2023-04-10T07:19:09;21.50;46.00
44723;DHT22;30451;48.638;10.624;2023-04-10T07:21:35;21.50;46.00
44723;DHT22;30451;48.638;10.624;2023-04-10T07:24:01;21.50;46.10
44723;DHT22;30451;48.638;10.624;2023-04-10T07:26:29;21.50;46.10
44723;DHT22;30451;48.638;10.624;2023-04-10T07:28:55;21.50;46.10
44723;DHT22;30451;48.638;10.624;2023-04-10T07:31:20;21.50;46.20
44723;DHT22;30451;48.638;10.624;2023-04-10T07:33:46;21.50;46.20
44723;DHT22;30451;48.638;10.624;2023-04-10T07:36:12;21.50;46.20
44723;DHT22;30451;48.638;10.624;2023-04-10T07:38:38;21.50;46.20
44723;DHT22;30451;48.638;10.624;2023-04-10T07:41:04;21.50;46.20
44723;DHT22;30451;48.638;10.624;2023-04-10T07:43:30;21.50;46.20
44723;DHT22;30451;48.638;10.624;2023-04-10T07:45:55;21.50;46.20
44723;DHT22;30451;48.638;10.624;2023-04-10T07:48:21;21.50;46.30
44723;DHT22;30451;48.638;10.624;2023-04-10T07:50:47;21.50;46.30
44723;DHT22;30451;48.638;10.624;2023-04-10T07:53:13;21.50;46.30
44723;DHT22;30451;48.638;10.624;2023-04-10T07:55:42;21.50;46.40
44723;DHT22;30451;48.638;10.624;2023-04-10T07:58:09;21.50;46.30
44723;DHT22;30451;48.638;10.624;2023-04-10T08:00:34;21.50;46.40
44723;DHT22;30451;48.638;10.624;2023-04-10T08:03:00;21.50;46.30
44723;DHT22;30451;48.638;10.624;2023-04-10T08:05:26;21.40;46.30
44723;DHT22;30451;48.638;10.624;2023-04-10T08:07:52;21.50;46.40
44723;DHT22;30451;48.638;10.624;2023-04-10T08:10:18;21.50;46.30
44723;DHT22;30451;48.638;10.624;2023-04-10T08:12:44;21.50;46.40
44723;DHT22;30451;48.638;10.624;2023-04-10T08:15:10;21.50;46.40
44723;DHT22;30451;48.638;10.624;2023-04-10T08:17:35;21.50;46.30
44723;DHT22;30451;48.638;10.624;2023-04-10T08:20:01;21.40;46.30
44723;DHT22;30451;48.638;10.624;2023-04-10T08:22:27;21.50;46.40
44723;DHT22;30451;48.638;10.624;2023-04-10T08:24:52;21.50;46.30
44723;DHT22;30451;48.638;10.624;2023-04-10T08:27:18;21.50;46.30
44723;DHT22;30451;48.638;10.624;2023-04-10T08:29:43;21.50;46.30
44723;DHT22;30451;48.638;10.624;2023-04-10T08:32:09;21.50;46.30
44723;DHT22;30451;48.638;10.624;2023-04-10T08:34:35;21.40;46.20
44723;DHT22;30451;48.638;10.624;2023-04-10T08:37:07;21.50;46.20
44723;DHT22;30451;48.638;10.624;2023-04-10T08:39:38;21.40;46.20
44723;DHT22;30451;48.638;10.624;2023-04-10T08:42:05;21.40;46.10
44723;DHT22;30451;48.638;10.624;2023-04-10T08:44:31;21.40;46.10
44723;DHT22;30451;48.638;10.624;2023-04-10T08:46:58;21.40;46.10
44723;DHT22;30451;48.638;10.624;2023-04-10T08:49:31;21.40;46.10
44723;DHT22;30451;48.638;10.624;2023-04-10T08:52:01;21.40;46.10
44723;DHT22;30451;48.638;10.624;2023-04-10T08:54:34;21.50;46.20
44723;DHT22;30451;48.638;10.624;2023-04-10T08:57:02;21.40;46.10
44723;DHT22;30451;48.638;10.624;2023-04-10T08:59:29;21.40;46.10
44723;DHT22;30451;48.638;10.624;2023-04-10T09:01:56;21.40;46.10
44723;DHT22;30451;48.638;10.624;2023-04-10T09:04:25;21.40;46.10
44723;DHT22;30451;48.638;10.624;2023-04-10T09:06:51;21.40;46.10
44723;DHT22;30451;48.638;10.624;2023-04-10T09:09:17;21.40;46.10
44723;DHT22;30451;48.638;10.624;2023-04-10T09:14:27;21.40;46.10
44723;DHT22;30451;48.638;10.624;2023-04-10T09:17:08;21.40;46.10
44723;DHT22;30451;48.638;10.624;2023-04-10T09:19:35;21.40;46.10
44723;DHT22;30451;48.638;10.624;2023-04-10T09:22:00;21.40;46.10
44723;DHT22;30451;48.638;10.624;2023-04-10T09:24:26;21.40;46.10
44723;DHT22;30451;48.638;10.624;2023-04-10T09:26:52;21.40;46.10
44723;DHT22;30451;48.638;10.624;2023-04-10T09:29:18;21.40;46.10
44723;DHT22;30451;48.638;10.624;2023-04-10T09:31:44;21.40;46.10
44723;DHT22;30451;48.638;10.624;2023-04-10T09:34:21;21.40;46.10
44723;DHT22;30451;48.638;10.624;2023-04-10T09:36:57;21.40;46.10
44723;DHT22;30451;48.638;10.624;2023-04-10T09:39:50;21.40;46.60
44723;DHT22;30451;48.638;10.624;2023-04-10T09:42:15;21.40;46.10
44723;DHT22;30451;48.638;10.624;2023-04-10T09:44:54;21.40;46.10
44723;DHT22;30451;48.638;10.624;2023-04-10T09:47:20;21.40;46.10
44723;DHT22;30451;48.638;10.624;2023-04-10T09:49:47;21.40;46.10
44723;DHT22;30451;48.638;10.624;2023-04-10T09:52:25;21.40;46.10
44723;DHT22;30451;48.638;10.624;2023-04-10T09:55:02;21.40;46.10
44723;DHT22;30451;48.638;10.624;2023-04-10T09:57:30;21.40;46.10
44723;DHT22;30451;48.638;10.624;2023-04-10T09:59:57;21.40;46.10
44723;DHT22;30451;48.638;10.624;2023-04-10T10:02:24;21.40;46.20
44723;DHT22;30451;48.638;10.624;2023-04-10T10:04:51;21.40;46.20
44723;DHT22;30451;48.638;10.624;2023-04-10T10:07:21;21.40;46.20
44723;DHT22;30451;48.638;10.624;2023-04-10T10:09:48;21.40;46.20
44723;DHT22;30451;48.638;10.624;2023-04-10T10:12:16;21.40;46.10
44723;DHT22;30451;48.638;10.624;2023-04-10T10:17:23;21.40;46.10
44723;DHT22;30451;48.638;10.624;2023-04-10T10:20:04;21.40;46.20
44723;DHT22;30451;48.638;10.624;2023-04-10T10:22:31;21.40;46.10
44723;DHT22;30451;48.638;10.624;2023-04-10T10:24:58;21.40;46.10
44723;DHT22;30451;48.638;10.624;2023-04-10T10:27:25;21.40;46.10
44723;DHT22;30451;48.638;10.624;2023-04-10T10:29:53;21.40;46.20
44723;DHT22;30451;48.638;10.624;2023-04-10T10:32:20;21.40;46.10
44723;DHT22;30451;48.638;10.624;2023-04-10T10:34:47;21.40;46.10
44723;DHT22;30451;48.638;10.624;2023-04-10T10:37:14;21.40;46.10
44723;DHT22;30451;48.638;10.624;2023-04-10T10:39:49;21.40;46.10
44723;DHT22;30451;48.638;10.624;2023-04-10T10:42:32;21.40;46.10
44723;DHT22;30451;48.638;10.624;2023-04-10T10:45:24;21.40;46.10
44723;DHT22;30451;48.638;10.624;2023-04-10T10:47:54;21.40;46.10
44723;DHT22;30451;48.638;10.624;2023-04-10T10:50:20;21.40;46.10
44723;DHT22;30451;48.638;10.624;2023-04-10T10:52:52;21.40;46.50
44723;DHT22;30451;48.638;10.624;2023-04-10T10:57:48;21.40;46.00
44723;DHT22;30451;48.638;10.624;2023-04-10T11:00:15;21.40;46.10
44723;DHT22;30451;48.638;10.624;2023-04-10T11:02:41;21.40;46.10
44723;DHT22;30451;48.638;10.624;2023-04-10T11:05:07;21.40;46.00
44723;DHT22;30451;48.638;10.624;2023-04-10T11:08:06;21.50;46.10
44723;DHT22;30451;48.638;10.624;2023-04-10T11:11:01;21.40;46.00
44723;DHT22;30451;48.638;10.624;2023-04-10T11:13:27;21.40;46.00
44723;DHT22;30451;48.638;10.624;2023-04-10T11:15:57;21.40;46.00
44723;DHT22;30451;48.638;10.624;2023-04-10T11:21:18;21.50;46.00
44723;DHT22;30451;48.638;10.624;2023-04-10T11:31:43;21.40;45.90
44723;DHT22;30451;48.638;10.624;2023-04-10T11:34:09;21.50;46.00
44723;DHT22;30451;48.638;10.624;2023-04-10T11:36:38;21.40;46.00
44723;DHT22;30451;48.638;10.624;2023-04-10T11:39:09;21.50;46.00
44723;DHT22;30451;48.638;10.624;2023-04-10T11:41:39;21.40;45.90
44723;DHT22;30451;48.638;10.624;2023-04-10T11:44:08;21.40;45.90
44723;DHT22;30451;48.638;10.624;2023-04-10T11:46:39;21.50;46.00
44723;DHT22;30451;48.638;10.624;2023-04-10T11:49:06;21.50;46.00
44723;DHT22;30451;48.638;10.624;2023-04-10T11:51:34;21.50;45.90
44723;DHT22;30451;48.638;10.624;2023-04-10T11:56:33;21.50;45.90
44723;DHT22;30451;48.638;10.624;2023-04-10T11:58:58;21.40;45.80
44723;DHT22;30451;48.638;10.624;2023-04-10T12:01:24;21.50;46.00
44723;DHT22;30451;48.638;10.624;2023-04-10T12:03:50;21.50;46.00
44723;DHT22;30451;48.638;10.624;2023-04-10T12:06:16;21.50;45.90
44723;DHT22;30451;48.638;10.624;2023-04-10T12:08:45;21.50;46.00
44723;DHT22;30451;48.638;10.624;2023-04-10T12:11:12;21.50;46.00
44723;DHT22;30451;48.638;10.624;2023-04-10T12:13:38;21.50;45.90
44723;DHT22;30451;48.638;10.624;2023-04-10T12:16:06;21.50;46.40
44723;DHT22;30451;48.638;10.624;2023-04-10T12:18:32;21.50;45.90
44723;DHT22;30451;48.638;10.624;2023-04-10T12:20:59;21.50;45.90
44723;DHT22;30451;48.638;10.624;2023-04-10T12:23:26;21.50;46.00
44723;DHT22;30451;48.638;10.624;2023-04-10T12:25:55;21.50;45.90
44723;DHT22;30451;48.638;10.624;2023-04-10T12:28:30;21.50;46.50
44723;DHT22;30451;48.638;10.624;2023-04-10T12:30:56;21.50;46.30
44723;DHT22;30451;48.638;10.624;2023-04-10T12:33:22;21.50;46.10
44723;DHT22;30451;48.638;10.624;2023-04-10T12:35:48;21.60;46.10
44723;DHT22;30451;48.638;10.624;2023-04-10T12:38:14;21.60;46.00
44723;DHT22;30451;48.638;10.624;2023-04-10T12:40:59;21.70;46.00
44723;DHT22;30451;48.638;10.624;2023-04-10T12:43:33;21.70;46.00
44723;DHT22;30451;48.638;10.624;2023-04-10T12:46:00;21.70;46.00
44723;DHT22;30451;48.638;10.624;2023-04-10T12:48:26;21.80;46.00
44723;DHT22;30451;48.638;10.624;2023-04-10T12:50:51;21.80;46.00
44723;DHT22;30451;48.638;10.624;2023-04-10T12:53:17;21.80;46.00
44723;DHT22;30451;48.638;10.624;2023-04-10T12:56:13;21.80;45.90
44723;DHT22;30451;48.638;10.624;2023-04-10T12:58:39;21.80;45.80
44723;DHT22;30451;48.638;10.624;2023-04-10T13:01:07;21.90;45.80
44723;DHT22;30451;48.638;10.624;2023-04-10T13:03:34;21.90;45.80
44723;DHT22;30451;48.638;10.624;2023-04-10T13:06:06;21.90;45.80
44723;DHT22;30451;48.638;10.624;2023-04-10T13:08:32;22.00;45.70
44723;DHT22;30451;48.638;10.624;2023-04-10T13:10:58;22.00;45.60
44723;DHT22;30451;48.638;10.624;2023-04-10T13:13:30;22.00;45.60
44723;DHT22;30451;48.638;10.624;2023-04-10T13:16:00;22.00;45.60
44723;DHT22;30451;48.638;10.624;2023-04-10T13:18:25;22.00;45.50
44723;DHT22;30451;48.638;10.624;2023-04-10T13:20:51;22.00;45.50
44723;DHT22;30451;48.638;10.624;2023-04-10T13:23:17;22.00;45.50
44723;DHT22;30451;48.638;10.624;2023-04-10T13:25:42;22.00;45.50
44723;DHT22;30451;48.638;10.624;2023-04-10T13:28:08;22.00;45.40
44723;DHT22;30451;48.638;10.624;2023-04-10T13:30:40;22.00;45.40
44723;DHT22;30451;48.638;10.624;2023-04-10T13:33:07;22.10;45.50
44723;DHT22;30451;48.638;10.624;2023-04-10T13:35:33;22.10;45.50
44723;DHT22;30451;48.638;10.624;2023-04-10T13:37:59;22.10;45.40
44723;DHT22;30451;48.638;10.624;2023-04-10T13:40:25;22.10;45.40
44723;DHT22;30451;48.638;10.624;2023-04-10T13:42:51;22.10;45.40
44723;DHT22;30451;48.638;10.624;2023-04-10T13:45:16;22.10;45.40
44723;DHT22;30451;48.638;10.624;2023-04-10T13:47:42;22.10;45.40
44723;DHT22;30451;48.638;10.624;2023-04-10T13:50:08;22.10;45.30
44723;DHT22;30451;48.638;10.624;2023-04-10T13:52:34;22.10;45.30
44723;DHT22;30451;48.638;10.624;2023-04-10T13:55:00;22.10;45.30
44723;DHT22;30451;48.638;10.624;2023-04-10T13:57:25;22.10;45.30
44723;DHT22;30451;48.638;10.624;2023-04-10T13:59:51;22.10;45.30
44723;DHT22;30451;48.638;10.624;2023-04-10T14:02:17;22.10;45.30
44723;DHT22;30451;48.638;10.624;2023-04-10T14:04:42;22.10;45.30
44723;DHT22;30451;48.638;10.624;2023-04-10T14:07:10;22.10;45.20
44723;DHT22;30451;48.638;10.624;2023-04-10T14:09:37;22.20;45.30
44723;DHT22;30451;48.638;10.624;2023-04-10T14:12:02;22.20;45.30
44723;DHT22;30451;48.638;10.624;2023-04-10T14:14:28;22.20;45.30
44723;DHT22;30451;48.638;10.624;2023-04-10T14:16:54;22.20;45.20
44723;DHT22;30451;48.638;10.624;2023-04-10T14:19:19;22.20;45.20
44723;DHT22;30451;48.638;10.624;2023-04-10T14:21:45;22.20;46.00
44723;DHT22;30451;48.638;10.624;2023-04-10T14:24:11;22.20;45.50
44723;DHT22;30451;48.638;10.624;2023-04-10T14:26:37;22.20;45.30
44723;DHT22;30451;48.638;10.624;2023-04-10T14:29:02;22.20;45.40
44723;DHT22;30451;48.638;10.624;2023-04-10T14:31:28;22.20;45.40
44723;DHT22;30451;48.638;10.624;2023-04-10T14:33:54;22.20;45.40
44723;DHT22;30451;48.638;10.624;2023-04-10T14:36:19;22.30;45.30
44723;DHT22;30451;48.638;10.624;2023-04-10T14:38:45;22.30;45.40
44723;DHT22;30451;48.638;10.624;2023-04-10T14:41:11;22.30;45.90
44723;DHT22;30451;48.638;10.624;2023-04-10T14:43:37;22.30;45.40
44723;DHT22;30451;48.638;10.624;2023-04-10T14:46:02;22.30;45.30
44723;DHT22;30451;48.638;10.624;2023-04-10T14:48:28;22.30;45.30
44723;DHT22;30451;48.638;10.624;2023-04-10T14:50:54;22.40;45.20
44723;DHT22;30451;48.638;10.624;2023-04-10T14:53:21;22.40;45.20
44723;DHT22;30451;48.638;10.624;2023-04-10T14:55:47;22.50;45.10
44723;DHT22;30451;48.638;10.624;2023-04-10T14:58:13;22.50;45.00
44723;DHT22;30451;48.638;10.624;2023-04-10T15:00:39;22.60;45.00
44723;DHT22;30451;48.638;10.624;2023-04-10T15:03:04;22.50;44.90
44723;DHT22;30451;48.638;10.624;2023-04-10T15:05:30;22.60;44.90
44723;DHT22;30451;48.638;10.624;2023-04-10T15:07:56;22.60;44.80
44723;DHT22;30451;48.638;10.624;2023-04-10T15:10:22;22.60;44.70
44723;DHT22;30451;48.638;10.624;2023-04-10T15:12:48;22.70;44.70
44723;DHT22;30451;48.638;10.624;2023-04-10T15:15:13;22.70;44.80
44723;DHT22;30451;48.638;10.624;2023-04-10T15:17:39;22.70;44.80
44723;DHT22;30451;48.638;10.624;2023-04-10T15:20:06;22.70;44.80
44723;DHT22;30451;48.638;10.624;2023-04-10T15:22:31;22.70;44.70
44723;DHT22;30451;48.638;10.624;2023-04-10T15:24:58;22.70;44.60
44723;DHT22;30451;48.638;10.624;2023-04-10T15:27:24;22.80;44.60
44723;DHT22;30451;48.638;10.624;2023-04-10T15:29:49;22.80;44.60
44723;DHT22;30451;48.638;10.624;2023-04-10T15:32:15;22.80;44.60
44723;DHT22;30451;48.638;10.624;2023-04-10T15:34:41;22.80;44.60
44723;DHT22;30451;48.638;10.624;2023-04-10T15:37:07;22.80;44.60
44723;DHT22;30451;48.638;10.624;2023-04-10T15:39:32;22.90;44.60
44723;DHT22;30451;48.638;10.624;2023-04-10T15:41:58;22.90;44.60